Time;durP1;ratioP1;P1;durP2;ratioP2;P2;SDS_P1;SDS_P2;PMS_P1;PMS_P2;Temp;Humidity;BMP_temperature;BMP_pressure;BME280_temperature;BME280_humidity;BME280_pressure;Samples;Min_cycle;Max_cycle;Signal;HPM_P1;HPM_P2
2023/07/08 00:00:53;;;;;;;3.67;1.98;;;18.70;99.90;;;;;;4177448;28;20032;-60
2023/07/08 00:02:54;;;;;;;3.83;2.28;;;18.70;99.90;;;;;;4159997;28;20045;-60
2023/07/08 00:04:55;;;;;;;4.40;2.70;;;18.70;99.90;;;;;;4177428;28;20028;-60
2023/07/08 00:06:56;;;;;;;4.90;2.20;;;18.70;99.90;;;;;;4177340;28;20386;-61
2023/07/08 00:08:57;;;;;;;2.80;1.88;;;18.70;99.90;;;;;;4177555;28;20480;-60
2023/07/08 00:10:59;;;;;;;3.92;1.83;;;18.60;99.90;;;;;;4176541;28;20094;-61
2023/07/08 00:13:00;;;;;;;4.90;1.90;;;18.60;99.90;;;;;;4176868;28;20040;-61
2023/07/08 00:15:01;;;;;;;2.45;1.85;;;18.50;99.90;;;;;;4177113;28;20094;-60
2023/07/08 00:17:02;;;;;;;5.72;2.22;;;18.50;99.90;;;;;;4177659;28;20493;-60
2023/07/08 00:19:09;;;;;;;4.28;2.20;;;18.60;99.90;;;;;;4176245;28;20028;-60
2023/07/08 00:21:15;;;;;;;2.75;1.85;;;18.50;99.90;;;;;;4177929;28;20044;-59
2023/07/08 00:23:21;;;;;;;3.50;1.92;;;18.50;99.90;;;;;;4176845;28;20094;-62
2023/07/08 00:25:22;;;;;;;1.85;1.75;;;18.50;99.90;;;;;;4177969;28;20032;-61
2023/07/08 00:27:24;;;;;;;4.22;2.30;;;18.40;99.90;;;;;;4157968;28;20091;-59
2023/07/08 00:29:25;;;;;;;3.97;2.25;;;18.40;99.90;;;;;;4177991;28;20464;-60
2023/07/08 00:31:26;;;;;;;2.53;1.92;;;18.40;99.90;;;;;;4176855;28;20025;-62
2023/07/08 00:33:27;;;;;;;4.82;2.30;;;18.40;99.90;;;;;;4177633;28;20547;-62
2023/07/08 00:35:40;;;;;;;6.20;2.20;;;18.40;99.90;;;;;;4176510;28;20091;-61
2023/07/08 00:37:41;;;;;;;5.18;2.30;;;18.40;99.90;;;;;;4159871;28;20148;-60
2023/07/08 00:39:42;;;;;;;2.42;2.08;;;18.40;99.90;;;;;;4176974;28;20025;-61
2023/07/08 00:41:44;;;;;;;5.15;2.13;;;18.40;99.90;;;;;;4177531;28;20028;-60
2023/07/08 00:43:50;;;;;;;2.90;2.20;;;18.40;99.90;;;;;;4177211;28;20040;-58
2023/07/08 00:46:02;;;;;;;3.03;2.28;;;18.30;99.90;;;;;;4177270;28;20041;-62
2023/07/08 00:48:28;;;;;;;8.25;2.50;;;18.30;99.90;;;;;;4177132;28;20025;-61
2023/07/08 00:50:29;;;;;;;3.38;2.35;;;18.30;99.90;;;;;;4177484;28;20412;-57
2023/07/08 00:52:30;;;;;;;12.10;3.83;;;18.20;99.90;;;;;;4177102;28;20091;-59
2023/07/08 00:54:31;;;;;;;3.55;1.98;;;18.30;99.90;;;;;;4176674;28;20481;-59
2023/07/08 00:56:38;;;;;;;5.28;2.60;;;18.20;99.90;;;;;;4176830;28;20296;-60
2023/07/08 00:58:48;;;;;;;3.13;2.20;;;18.20;99.90;;;;;;4176432;28;20477;-60
2023/07/08 01:00:51;;;;;;;2.85;2.17;;;18.20;99.90;;;;;;4176576;28;20049;-61
2023/07/08 01:02:55;;;;;;;3.03;2.15;;;18.20;99.90;;;;;;4175934;28;20169;-60
2023/07/08 01:05:04;;;;;;;3.75;2.20;;;18.20;99.90;;;;;;4177478;28;20166;-63
2023/07/08 01:07:07;;;;;;;4.40;2.17;;;18.20;99.90;;;;;;4176425;28;20026;-61
2023/07/08 01:09:11;;;;;;;4.63;2.60;;;18.20;99.90;;;;;;4177329;28;20029;-60
2023/07/08 01:11:12;;;;;;;3.17;2.10;;;18.20;99.90;;;;;;4176038;28;20562;-60
2023/07/08 01:13:14;;;;;;;5.72;1.95;;;18.20;99.90;;;;;;4177068;28;20033;-60
2023/07/08 01:15:16;;;;;;;8.65;2.38;;;18.20;99.90;;;;;;4175741;28;20025;-59
2023/07/08 01:17:17;;;;;;;8.02;2.47;;;18.10;99.90;;;;;;4177662;28;20032;-61
2023/07/08 01:19:31;;;;;;;4.90;2.72;;;18.10;99.90;;;;;;4176474;28;20470;-60
2023/07/08 01:21:38;;;;;;;3.08;2.30;;;18.10;99.90;;;;;;4176556;28;20114;-61
2023/07/08 01:23:39;;;;;;;2.85;2.33;;;18.10;99.90;;;;;;4176241;28;20033;-61
2023/07/08 01:25:42;;;;;;;4.40;2.28;;;18.10;99.90;;;;;;4177423;28;20037;-58
2023/07/08 01:27:47;;;;;;;3.42;2.15;;;18.10;99.90;;;;;;4175988;28;20083;-64
2023/07/08 01:29:48;;;;;;;3.28;2.42;;;18.10;99.90;;;;;;4176786;28;20053;-60
2023/07/08 01:31:50;;;;;;;4.50;2.40;;;18.10;99.90;;;;;;4176184;28;20036;-62
2023/07/08 01:33:54;;;;;;;3.15;2.45;;;18.10;99.90;;;;;;4180056;28;20072;-61
2023/07/08 01:35:55;;;;;;;6.15;2.33;;;18.10;99.90;;;;;;4161394;28;20033;-61
2023/07/08 01:38:03;;;;;;;2.90;2.40;;;18.00;99.90;;;;;;4179762;28;20089;-61
2023/07/08 01:40:15;;;;;;;5.70;2.38;;;18.10;99.90;;;;;;4179970;28;20094;-59
2023/07/08 01:42:16;;;;;;;6.13;2.45;;;18.10;99.90;;;;;;4180127;28;20032;-64
2023/07/08 01:44:30;;;;;;;3.38;2.50;;;18.10;99.90;;;;;;4179049;28;20103;-72
2023/07/08 01:46:31;;;;;;;2.63;2.22;;;18.10;99.90;;;;;;4179362;28;20053;-60
2023/07/08 01:48:39;;;;;;;5.90;2.10;;;18.10;99.90;;;;;;4179647;28;20045;-61
2023/07/08 01:50:55;;;;;;;4.50;2.53;;;18.10;99.90;;;;;;4179983;28;20473;-61
2023/07/08 01:52:59;;;;;;;3.42;1.92;;;18.10;99.90;;;;;;4161549;28;20045;-59
2023/07/08 01:55:00;;;;;;;3.60;1.95;;;18.10;99.90;;;;;;4179916;28;20477;-60
2023/07/08 01:57:02;;;;;;;5.93;2.45;;;18.00;99.90;;;;;;4162294;28;20033;-63
2023/07/08 01:59:03;;;;;;;2.38;2.13;;;18.00;99.90;;;;;;4178734;28;20029;-59
2023/07/08 02:01:05;;;;;;;6.32;2.17;;;18.00;99.90;;;;;;4180442;28;20477;-60
2023/07/08 02:03:06;;;;;;;3.38;2.30;;;18.00;99.90;;;;;;4177984;28;20185;-61
2023/07/08 02:05:08;;;;;;;6.70;2.38;;;18.00;99.90;;;;;;4180376;28;20024;-59
2023/07/08 02:07:09;;;;;;;3.47;2.13;;;18.00;99.90;;;;;;4179218;28;20036;-70
2023/07/08 02:09:10;;;;;;;4.63;2.80;;;18.00;99.90;;;;;;4180420;28;20041;-62
2023/07/08 02:11:12;;;;;;;2.28;2.08;;;18.00;99.90;;;;;;4179276;28;20093;-61
2023/07/08 02:13:13;;;;;;;3.33;2.38;;;18.00;99.90;;;;;;4180341;28;20067;-70
2023/07/08 02:15:14;;;;;;;2.55;2.17;;;18.00;99.90;;;;;;4178660;28;20041;-66
2023/07/08 02:17:16;;;;;;;3.33;2.13;;;17.90;99.90;;;;;;4178604;28;20055;-61
2023/07/08 02:19:19;;;;;;;7.03;2.50;;;17.90;99.90;;;;;;4178971;28;20423;-59
2023/07/08 02:21:20;;;;;;;4.15;2.65;;;17.90;99.90;;;;;;4179239;28;20111;-62
2023/07/08 02:23:21;;;;;;;3.08;2.25;;;17.90;99.90;;;;;;4179053;28;20103;-67
2023/07/08 02:25:22;;;;;;;2.90;2.10;;;17.90;99.90;;;;;;4179285;28;20099;-61
2023/07/08 02:27:23;;;;;;;2.22;2.03;;;17.90;99.90;;;;;;4179647;28;20419;-63
2023/07/08 02:29:25;;;;;;;6.00;2.55;;;17.90;99.90;;;;;;4179205;28;20029;-61
2023/07/08 02:31:27;;;;;;;3.20;2.00;;;17.80;99.90;;;;;;4179245;28;20041;-60
2023/07/08 02:33:32;;;;;;;6.82;2.60;;;17.80;99.90;;;;;;4178209;28;20540;-63
2023/07/08 02:35:33;;;;;;;4.32;2.03;;;17.80;99.90;;;;;;4180046;28;20070;-63
2023/07/08 02:37:35;;;;;;;3.90;2.25;;;17.80;99.90;;;;;;4178143;28;20037;-61
2023/07/08 02:39:36;;;;;;;3.08;1.63;;;17.70;99.90;;;;;;4178805;28;20493;-66
2023/07/08 02:41:37;;;;;;;2.42;2.00;;;17.80;99.90;;;;;;4178805;28;20075;-62
2023/07/08 02:43:39;;;;;;;3.53;2.17;;;17.70;99.90;;;;;;4179132;28;21331;-60
2023/07/08 02:45:40;;;;;;;4.00;2.42;;;17.70;99.90;;;;;;4177934;28;20041;-59
2023/07/08 02:47:42;;;;;;;4.30;2.60;;;17.70;99.90;;;;;;4179562;28;20075;-61
2023/07/08 02:49:43;;;;;;;4.15;2.00;;;17.70;99.90;;;;;;4177999;28;20037;-62
2023/07/08 02:51:44;;;;;;;7.60;2.50;;;17.70;99.90;;;;;;4179482;28;20043;-60
2023/07/08 02:53:46;;;;;;;6.13;2.05;;;17.60;99.90;;;;;;4177889;28;20090;-61
2023/07/08 02:55:47;;;;;;;5.55;2.88;;;17.60;99.90;;;;;;4178980;28;20071;-66
2023/07/08 02:57:49;;;;;;;4.07;2.47;;;17.70;99.90;;;;;;4178921;28;20082;-61
2023/07/08 02:59:50;;;;;;;3.65;2.33;;;17.60;99.90;;;;;;4177834;28;20040;-62
2023/07/08 03:01:52;;;;;;;7.18;3.00;;;17.60;99.90;;;;;;4160684;28;20042;-62
2023/07/08 03:03:58;;;;;;;4.53;2.20;;;17.70;99.90;;;;;;4178186;28;20082;-73
2023/07/08 03:06:02;;;;;;;3.30;2.58;;;17.70;99.90;;;;;;4179134;28;20033;-61
2023/07/08 03:08:03;;;;;;;4.97;2.85;;;17.70;99.90;;;;;;4178139;28;20033;-65
2023/07/08 03:10:06;;;;;;;3.67;2.28;;;17.70;99.90;;;;;;4178408;28;20071;-73
2023/07/08 03:12:09;;;;;;;5.65;2.40;;;17.70;99.90;;;;;;4178189;28;20529;-61
2023/07/08 03:14:10;;;;;;;3.03;2.30;;;17.70;99.90;;;;;;4179392;28;20094;-69
2023/07/08 03:16:14;;;;;;;4.85;2.33;;;17.80;99.90;;;;;;4177043;28;20463;-67
2023/07/08 03:18:15;;;;;;;2.70;2.40;;;17.80;99.90;;;;;;4179373;28;20464;-65
2023/07/08 03:20:17;;;;;;;4.53;2.40;;;17.80;99.90;;;;;;4174179;28;20033;-61
2023/07/08 03:22:18;;;;;;;4.13;2.60;;;17.80;99.90;;;;;;4178812;28;20029;-60
2023/07/08 03:24:19;;;;;;;3.53;2.35;;;17.80;99.90;;;;;;4177741;28;20045;-62
2023/07/08 03:26:23;;;;;;;5.00;2.63;;;17.90;99.90;;;;;;4179098;28;20079;-60
2023/07/08 03:28:25;;;;;;;2.95;2.33;;;17.90;99.90;;;;;;4178231;28;20424;-60
2023/07/08 03:30:27;;;;;;;2.50;2.08;;;17.80;99.90;;;;;;4178899;28;20071;-61
2023/07/08 03:32:28;;;;;;;3.00;2.22;;;17.90;99.90;;;;;;4177479;28;20543;-61
2023/07/08 03:34:29;;;;;;;4.22;2.33;;;18.00;99.90;;;;;;4178379;28;20078;-59
2023/07/08 03:36:31;;;;;;;7.82;2.30;;;17.90;99.90;;;;;;4178232;28;20025;-60
2023/07/08 03:38:32;;;;;;;2.17;1.98;;;18.00;99.90;;;;;;4177549;28;20439;-60
2023/07/08 03:40:33;;;;;;;4.40;2.10;;;18.00;99.90;;;;;;4178677;28;20033;-59
2023/07/08 03:42:34;;;;;;;3.03;2.20;;;18.00;99.90;;;;;;4177642;28;20319;-59
2023/07/08 03:44:35;;;;;;;2.35;2.13;;;18.00;99.90;;;;;;4178731;28;20854;-60
2023/07/08 03:46:36;;;;;;;4.57;2.30;;;18.00;99.90;;;;;;4177640;28;20025;-60
2023/07/08 03:48:38;;;;;;;5.72;2.17;;;18.00;99.90;;;;;;4178122;28;20103;-62
2023/07/08 03:50:40;;;;;;;3.28;2.42;;;18.00;99.90;;;;;;4177317;28;20021;-64
2023/07/08 03:52:41;;;;;;;8.00;2.45;;;18.00;99.90;;;;;;4178683;28;20408;-62
2023/07/08 03:54:42;;;;;;;5.75;2.75;;;18.00;99.90;;;;;;4176978;28;20083;-63
2023/07/08 03:56:43;;;;;;;3.05;1.95;;;18.00;99.90;;;;;;4177742;28;20037;-60
2023/07/08 03:58:44;;;;;;;6.03;2.10;;;18.10;99.90;;;;;;4177633;28;20098;-60
2023/07/08 04:00:45;;;;;;;8.13;2.42;;;18.20;99.90;;;;;;4178076;28;20037;-61
2023/07/08 04:02:48;;;;;;;3.65;2.33;;;18.40;99.90;;;;;;4177753;28;20044;-60
2023/07/08 04:04:50;;;;;;;5.82;2.20;;;18.70;99.90;;;;;;4177646;28;20041;-60
2023/07/08 04:06:51;;;;;;;8.02;3.17;;;18.90;99.90;;;;;;4177655;28;20025;-61
2023/07/08 04:08:52;;;;;;;4.55;2.92;;;19.00;99.90;;;;;;4177157;28;20419;-60
2023/07/08 04:10:54;;;;;;;2.75;2.15;;;19.10;99.90;;;;;;4177203;28;20805;-60
2023/07/08 04:12:55;;;;;;;5.07;2.28;;;19.20;99.90;;;;;;4175682;28;20049;-60
2023/07/08 04:14:56;;;;;;;7.03;2.28;;;19.40;99.90;;;;;;4159691;28;20099;-62
2023/07/08 04:16:58;;;;;;;4.00;2.08;;;20.00;99.90;;;;;;4175956;28;20033;-61
2023/07/08 04:18:59;;;;;;;4.40;2.10;;;20.30;99.90;;;;;;4176026;28;20057;-60
2023/07/08 04:21:02;;;;;;;6.93;2.85;;;20.90;99.90;;;;;;4176310;28;20029;-61
2023/07/08 04:23:03;;;;;;;5.60;2.55;;;21.50;99.90;;;;;;4178016;28;20486;-61
2023/07/08 04:25:04;;;;;;;6.25;2.17;;;22.00;99.90;;;;;;4176886;28;20420;-61
2023/07/08 04:27:05;;;;;;;4.38;2.33;;;22.60;99.90;;;;;;4178180;28;20033;-68
2023/07/08 04:29:12;;;;;;;4.13;2.30;;;23.40;99.90;;;;;;4177047;28;20461;-61
2023/07/08 04:31:13;;;;;;;4.72;2.03;;;24.00;99.90;;;;;;4177782;28;20040;-60
2023/07/08 04:33:15;;;;;;;3.40;1.95;;;24.20;99.90;;;;;;4176618;28;20049;-61
2023/07/08 04:35:16;;;;;;;2.35;1.90;;;23.80;99.90;;;;;;4176330;28;20531;-61
2023/07/08 04:37:19;;;;;;;3.67;1.73;;;23.50;99.90;;;;;;4176383;28;20029;-61
2023/07/08 04:39:20;;;;;;;6.03;2.25;;;23.50;99.90;;;;;;4176506;28;20028;-62
2023/07/08 04:41:21;;;;;;;6.90;2.30;;;23.10;99.90;;;;;;4177426;28;20021;-60
2023/07/08 04:43:22;;;;;;;6.13;2.00;;;23.00;99.90;;;;;;4176435;28;20428;-59
2023/07/08 04:45:23;;;;;;;3.75;1.85;;;23.00;99.90;;;;;;4177168;28;20044;-60
2023/07/08 04:47:29;;;;;;;2.45;1.88;;;23.40;99.90;;;;;;4176105;28;20547;-61
2023/07/08 04:49:31;;;;;;;3.08;1.60;;;23.70;99.90;;;;;;4177697;28;20036;-61
2023/07/08 04:51:33;;;;;;;4.03;2.13;;;23.90;99.90;;;;;;4175431;28;20045;-64
2023/07/08 04:53:34;;;;;;;2.53;1.80;;;24.20;99.90;;;;;;4176715;28;20037;-72
2023/07/08 04:55:41;;;;;;;4.45;1.90;;;24.50;99.90;;;;;;4176227;28;20120;-63
2023/07/08 04:57:42;;;;;;;4.05;2.28;;;24.80;99.90;;;;;;4176058;28;20478;-62
2023/07/08 04:59:43;;;;;;;5.38;2.00;;;24.90;99.90;;;;;;4175389;28;21468;-61
2023/07/08 05:01:45;;;;;;;2.88;1.70;;;25.30;99.90;;;;;;4176438;28;20044;-62
2023/07/08 05:03:46;;;;;;;3.88;2.17;;;25.90;99.90;;;;;;4176323;28;20118;-67
2023/07/08 05:05:47;;;;;;;5.68;1.80;;;25.70;99.90;;;;;;4176912;28;20037;-65
2023/07/08 05:07:49;;;;;;;6.03;2.20;;;26.00;99.90;;;;;;4175376;28;20091;-69
2023/07/08 05:09:50;;;;;;;10.18;4.60;;;26.20;99.90;;;;;;4176844;28;20033;-63
2023/07/08 05:11:52;;;;;;;5.47;2.60;;;26.30;99.90;;;;;;4176710;28;20408;-63
2023/07/08 05:13:53;;;;;;;5.63;2.75;;;26.20;99.90;;;;;;4176327;28;20033;-63
2023/07/08 05:15:54;;;;;;;6.82;2.17;;;25.70;99.90;;;;;;4177211;28;20033;-61
2023/07/08 05:17:56;;;;;;;2.92;2.03;;;25.20;99.90;;;;;;4175582;28;20088;-66
2023/07/08 05:20:00;;;;;;;3.50;1.90;;;24.70;99.90;;;;;;4177640;28;20033;-67
2023/07/08 05:22:02;;;;;;;5.05;2.22;;;24.20;99.90;;;;;;4176031;28;20083;-63
2023/07/08 05:24:05;;;;;;;4.57;2.47;;;23.90;99.90;;;;;;4177431;28;20091;-61
2023/07/08 05:26:07;;;;;;;7.00;2.08;;;23.60;99.90;;;;;;4176168;28;20087;-62
2023/07/08 05:28:09;;;;;;;2.65;2.10;;;23.50;99.90;;;;;;4177397;28;20094;-67
2023/07/08 05:30:14;;;;;;;4.07;2.30;;;23.60;99.90;;;;;;4175544;28;20036;-62
2023/07/08 05:32:15;;;;;;;5.63;2.40;;;23.60;99.90;;;;;;4176203;28;20547;-69
2023/07/08 05:34:17;;;;;;;6.72;2.47;;;23.50;99.90;;;;;;4175771;28;20049;-61
2023/07/08 05:36:18;;;;;;;4.35;2.80;;;23.40;99.90;;;;;;4177086;28;20033;-61
2023/07/08 05:38:19;;;;;;;6.15;2.85;;;23.20;99.90;;;;;;4176118;28;20102;-64
2023/07/08 05:40:20;;;;;;;5.93;1.95;;;23.00;99.90;;;;;;4176369;28;20029;-66
2023/07/08 05:42:22;;;;;;;5.82;1.98;;;22.80;99.90;;;;;;4176365;28;20440;-61
2023/07/08 05:44:24;;;;;;;3.45;2.10;;;22.60;99.90;;;;;;4175881;28;20033;-69
2023/07/08 05:46:25;;;;;;;4.43;1.95;;;22.40;99.90;;;;;;4174498;28;20496;-67
2023/07/08 05:48:26;;;;;;;4.43;2.15;;;22.10;99.90;;;;;;4176245;28;20026;-70
2023/07/08 05:50:28;;;;;;;4.32;2.33;;;22.00;99.90;;;;;;4175467;28;20037;-60
2023/07/08 05:52:29;;;;;;;2.60;2.13;;;21.90;99.90;;;;;;4175678;28;20030;-62
2023/07/08 05:54:30;;;;;;;6.45;2.05;;;21.80;99.90;;;;;;4177342;28;20041;-68
2023/07/08 05:56:31;;;;;;;6.05;1.90;;;21.90;99.90;;;;;;4170800;28;20075;-61
2023/07/08 05:58:33;;;;;;;3.45;2.05;;;21.80;99.90;;;;;;4160641;28;20103;-60
2023/07/08 06:00:34;;;;;;;3.10;2.17;;;21.90;99.90;;;;;;4158833;28;20187;-75
2023/07/08 06:02:37;;;;;;;3.83;1.95;;;22.10;99.90;;;;;;4160225;28;20433;-67
2023/07/08 06:04:39;;;;;;;4.80;2.33;;;22.50;99.90;;;;;;4158995;28;20065;-68
2023/07/08 06:06:40;;;;;;;4.88;1.90;;;22.90;99.90;;;;;;4166771;28;20029;-63
2023/07/08 06:08:41;;;;;;;3.22;2.28;;;23.10;99.90;;;;;;4175660;28;20028;-62
2023/07/08 06:10:44;;;;;;;2.85;2.20;;;23.40;99.90;;;;;;4176722;28;20091;-69
2023/07/08 06:12:45;;;;;;;9.65;2.58;;;23.60;99.90;;;;;;4176509;28;20480;-63
2023/07/08 06:14:46;;;;;;;5.90;2.15;;;23.70;99.90;;;;;;4176488;28;20025;-63
2023/07/08 06:16:47;;;;;;;5.13;1.83;;;23.60;99.90;;;;;;4176412;28;20017;-66
2023/07/08 06:18:48;;;;;;;2.88;1.77;;;23.50;99.90;;;;;;4177402;28;20090;-72
2023/07/08 06:20:57;;;;;;;4.40;1.42;;;23.40;99.90;;;;;;4180101;28;20025;-68
2023/07/08 06:22:58;;;;;;;4.45;2.75;;;23.40;99.90;;;;;;4177902;28;20111;-74
2023/07/08 06:24:59;;;;;;;4.18;1.83;;;23.20;99.90;;;;;;4179460;28;20434;-68
2023/07/08 06:27:01;;;;;;;1.73;1.33;;;23.30;99.90;;;;;;4177827;28;20448;-70
2023/07/08 06:29:03;;;;;;;5.82;2.40;;;23.40;99.90;;;;;;4179782;28;20151;-68
2023/07/08 06:31:04;;;;;;;4.78;2.35;;;23.40;99.90;;;;;;4178021;28;20041;-66
2023/07/08 06:33:06;;;;;;;3.20;1.90;;;23.60;99.90;;;;;;4178971;28;20064;-68
2023/07/08 06:35:07;;;;;;;5.85;2.15;;;23.50;99.90;;;;;;4177854;28;20021;-71
2023/07/08 06:37:09;;;;;;;6.32;3.10;;;23.50;99.90;;;;;;4180041;28;20083;-70
2023/07/08 06:39:11;;;;;;;7.10;2.70;;;23.40;99.90;;;;;;4178799;28;20067;-74
2023/07/08 06:41:12;;;;;;;7.78;2.30;;;23.40;99.90;;;;;;4161248;28;20127;-74
2023/07/08 06:43:13;;;;;;;7.57;2.55;;;23.40;99.90;;;;;;4159782;28;20461;-65
2023/07/08 06:45:14;;;;;;;6.63;2.53;;;23.40;99.90;;;;;;4179038;28;20537;-62
2023/07/08 06:47:20;;;;;;;4.60;2.65;;;23.30;99.90;;;;;;4178368;28;20574;-70
2023/07/08 06:49:21;;;;;;;3.72;2.75;;;23.30;99.90;;;;;;4179265;28;20086;-61
2023/07/08 06:51:22;;;;;;;3.95;2.55;;;23.40;99.90;;;;;;4178881;28;20100;-72
2023/07/08 06:53:24;;;;;;;4.95;2.97;;;23.60;99.90;;;;;;4178343;28;20428;-62
2023/07/08 06:55:25;;;;;;;2.60;1.98;;;23.80;99.90;;;;;;4161035;28;20083;-68
2023/07/08 06:57:26;;;;;;;7.93;3.22;;;24.10;99.90;;;;;;4160279;28;20030;-71
2023/07/08 06:59:28;;;;;;;7.53;4.00;;;24.30;99.90;;;;;;4178865;28;20045;-61
2023/07/08 07:01:29;;;;;;;19.83;7.65;;;24.40;99.90;;;;;;4176691;28;20083;-60
2023/07/08 07:03:30;;;;;;;8.05;2.55;;;24.70;99.90;;;;;;4162145;28;20126;-62
2023/07/08 07:05:31;;;;;;;2.88;1.98;;;25.30;99.90;;;;;;4160763;28;20131;-69
2023/07/08 07:07:34;;;;;;;2.72;2.03;;;25.70;99.90;;;;;;4163021;28;20080;-68
2023/07/08 07:09:35;;;;;;;5.38;1.80;;;25.80;99.90;;;;;;4155608;28;20789;-63
2023/07/08 07:11:36;;;;;;;56.95;10.50;;;25.90;99.90;;;;;;4179022;28;20473;-66
2023/07/08 07:13:37;;;;;;;7.65;2.15;;;26.10;99.90;;;;;;4159817;28;20509;-63
2023/07/08 07:15:38;;;;;;;18.88;4.55;;;25.70;99.90;;;;;;4178507;28;20041;-65
2023/07/08 07:17:40;;;;;;;20.70;3.45;;;25.40;99.90;;;;;;4177110;28;20041;-62
2023/07/08 07:19:41;;;;;;;10.18;3.45;;;25.30;99.90;;;;;;4179128;28;20471;-61
2023/07/08 07:21:42;;;;;;;13.77;3.33;;;25.30;99.90;;;;;;4178620;28;20095;-64
2023/07/08 07:23:43;;;;;;;6.55;2.60;;;25.40;99.90;;;;;;4177320;28;20033;-66
2023/07/08 07:25:47;;;;;;;4.05;2.13;;;25.80;99.90;;;;;;4178169;28;20041;-60
2023/07/08 07:27:48;;;;;;;4.18;2.00;;;26.10;99.90;;;;;;4177513;28;20033;-62
2023/07/08 07:29:50;;;;;;;2.50;1.83;;;26.50;99.90;;;;;;4177341;28;20095;-61
2023/07/08 07:31:51;;;;;;;5.88;2.53;;;26.80;99.90;;;;;;4176450;28;20693;-62
2023/07/08 07:33:53;;;;;;;5.35;2.17;;;26.50;99.90;;;;;;4178437;28;20053;-61
2023/07/08 07:35:54;;;;;;;8.10;5.18;;;26.70;99.90;;;;;;4177171;28;20033;-61
2023/07/08 07:37:55;;;;;;;3.78;2.13;;;27.00;99.90;;;;;;4178143;28;20082;-62
2023/07/08 07:39:56;;;;;;;3.50;2.70;;;26.80;99.80;;;;;;4177391;28;20049;-61
2023/07/08 07:41:57;;;;;;;2.67;2.20;;;26.40;99.70;;;;;;4178526;28;20103;-62
2023/07/08 07:43:58;;;;;;;3.65;1.60;;;26.30;99.50;;;;;;4177164;28;20040;-63
2023/07/08 07:45:59;;;;;;;3.25;1.77;;;26.20;99.20;;;;;;4177355;28;20045;-62
2023/07/08 07:48:01;;;;;;;4.28;1.98;;;25.60;99.20;;;;;;4177429;28;20040;-62
2023/07/08 07:50:07;;;;;;;2.83;2.05;;;25.10;99.60;;;;;;4177688;28;20374;-65
2023/07/08 07:52:10;;;;;;;3.33;1.90;;;24.90;99.40;;;;;;4176885;28;20484;-61
2023/07/08 07:54:11;;;;;;;3.45;1.55;;;25.10;99.90;;;;;;4177994;28;20477;-62
2023/07/08 07:56:12;;;;;;;3.40;1.52;;;25.20;99.50;;;;;;4177810;28;20021;-62
2023/07/08 07:58:14;;;;;;;11.55;2.80;;;25.40;99.00;;;;;;4177080;28;20184;-62
2023/07/08 08:00:15;;;;;;;7.07;2.72;;;25.30;98.50;;;;;;4177987;28;20083;-63
2023/07/08 08:02:17;;;;;;;1.48;1.08;;;25.20;98.30;;;;;;4177094;28;20021;-62
2023/07/08 08:04:18;;;;;;;3.78;1.52;;;24.80;97.60;;;;;;4177935;28;20037;-61
2023/07/08 08:06:19;;;;;;;2.33;1.60;;;24.60;97.20;;;;;;4177127;28;20029;-61
2023/07/08 08:08:22;;;;;;;3.35;1.40;;;24.20;97.10;;;;;;4178376;28;20045;-62
2023/07/08 08:10:23;;;;;;;8.15;2.38;;;24.00;97.00;;;;;;4176900;28;20048;-62
2023/07/08 08:12:24;;;;;;;34.25;5.28;;;24.20;97.10;;;;;;4177831;28;20033;-61
2023/07/08 08:14:25;;;;;;;3.08;1.42;;;24.20;96.80;;;;;;4176859;28;20087;-63
2023/07/08 08:16:27;;;;;;;3.65;1.20;;;24.20;96.30;;;;;;4178110;28;20029;-63
2023/07/08 08:18:28;;;;;;;1.85;1.10;;;24.00;95.90;;;;;;4176233;28;20083;-62
2023/07/08 08:20:30;;;;;;;4.60;1.10;;;23.80;95.60;;;;;;4177342;28;20106;-61
2023/07/08 08:22:31;;;;;;;2.72;1.10;;;23.50;95.90;;;;;;4176954;28;20414;-58
2023/07/08 08:24:33;;;;;;;14.00;3.55;;;23.50;96.00;;;;;;4177227;28;20090;-60
2023/07/08 08:26:34;;;;;;;26.95;5.90;;;23.60;96.50;;;;;;4176706;28;20567;-63
2023/07/08 08:28:35;;;;;;;15.20;2.85;;;24.00;96.80;;;;;;4176211;28;20033;-62
2023/07/08 08:30:36;;;;;;;20.05;4.18;;;24.20;96.70;;;;;;4177772;28;20441;-63
2023/07/08 08:32:37;;;;;;;9.30;2.25;;;24.50;96.60;;;;;;4174668;28;20040;-61
2023/07/08 08:34:38;;;;;;;10.68;2.45;;;24.80;96.00;;;;;;4176234;28;21738;-61
2023/07/08 08:36:39;;;;;;;4.78;1.73;;;25.10;95.60;;;;;;4175333;28;20044;-65
2023/07/08 08:38:41;;;;;;;33.83;4.80;;;24.80;95.20;;;;;;4177209;28;20614;-62
2023/07/08 08:40:43;;;;;;;7.93;2.35;;;24.80;95.20;;;;;;4175726;28;20114;-63
2023/07/08 08:42:59;;;;;;;2.65;1.40;;;24.40;94.90;;;;;;4176714;28;20104;-60
2023/07/08 08:45:02;;;;;;;2.45;1.02;;;24.20;95.00;;;;;;4175932;28;20181;-61
2023/07/08 08:47:10;;;;;;;3.38;1.60;;;24.00;95.20;;;;;;4175155;28;20182;-63
2023/07/08 08:49:20;;;;;;;2.28;1.30;;;23.90;95.00;;;;;;4176819;28;20094;-61
2023/07/08 08:51:23;;;;;;;5.93;1.42;;;23.90;94.30;;;;;;4177022;28;20099;-63
2023/07/08 08:53:26;;;;;;;2.55;1.52;;;23.80;95.30;;;;;;4176075;28;20021;-63
2023/07/08 08:55:28;;;;;;;6.30;1.60;;;23.60;95.80;;;;;;4177682;28;20033;-61
2023/07/08 08:57:52;;;;;;;3.45;1.73;;;23.60;96.10;;;;;;4158173;28;20143;-62
2023/07/08 08:59:55;;;;;;;4.60;1.77;;;23.70;96.30;;;;;;4176821;28;20037;-63
2023/07/08 09:01:58;;;;;;;3.67;1.77;;;23.70;96.60;;;;;;4175825;28;20102;-62
2023/07/08 09:04:15;;;;;;;4.35;1.45;;;23.90;96.90;;;;;;4176800;28;20477;-62
2023/07/08 09:06:30;;;;;;;2.50;1.17;;;24.20;96.80;;;;;;4176266;28;20098;-59
2023/07/08 09:08:34;;;;;;;3.17;1.73;;;24.20;96.60;;;;;;4177035;28;20044;-62
2023/07/08 09:10:47;;;;;;;29.35;5.82;;;24.00;96.60;;;;;;4174761;28;20130;-63
2023/07/08 09:12:53;;;;;;;31.67;4.30;;;24.20;96.60;;;;;;4177451;28;20469;-63
2023/07/08 09:14:56;;;;;;;4.97;1.92;;;24.50;96.80;;;;;;4175131;28;20408;-64
2023/07/08 09:17:15;;;;;;;2.22;1.50;;;24.70;96.70;;;;;;4176611;28;20170;-64
2023/07/08 09:19:36;;;;;;;1.98;1.70;;;24.80;96.10;;;;;;4175554;28;20036;-68
2023/07/08 09:21:53;;;;;;;1.92;1.52;;;25.00;95.30;;;;;;4177263;28;20032;-64
2023/07/08 09:24:02;;;;;;;3.55;1.52;;;25.30;94.40;;;;;;4175194;28;20074;-62
2023/07/08 09:26:13;;;;;;;11.75;2.63;;;25.60;94.60;;;;;;4175866;28;20072;-69
2023/07/08 09:28:14;;;;;;;6.95;1.40;;;25.80;93.30;;;;;;4176081;28;20091;-70
2023/07/08 09:30:20;;;;;;;3.78;1.23;;;25.50;92.90;;;;;;4176225;28;20049;-65
2023/07/08 09:32:24;;;;;;;2.13;0.90;;;25.00;92.40;;;;;;4175901;28;20033;-64
2023/07/08 09:34:41;;;;;;;31.85;4.18;;;24.60;91.80;;;;;;4176081;28;20083;-61
2023/07/08 09:36:47;;;;;;;22.17;4.82;;;24.60;91.70;;;;;;4175895;28;20056;-64
2023/07/08 09:38:50;;;;;;;23.95;4.93;;;24.60;92.20;;;;;;4177204;28;20174;-63
2023/07/08 09:40:54;;;;;;;5.20;1.45;;;24.70;92.50;;;;;;4179519;28;20036;-61
2023/07/08 09:43:25;;;;;;;1.50;0.88;;;24.60;91.90;;;;;;4177176;28;20378;-64
2023/07/08 09:45:29;;;;;;;44.13;6.97;;;24.60;91.60;;;;;;4164999;28;20041;-63
2023/07/08 09:47:35;;;;;;;3.88;1.50;;;24.60;92.40;;;;;;4176549;28;20086;-61
2023/07/08 09:49:36;;;;;;;5.13;1.52;;;24.50;91.70;;;;;;4175046;28;20111;-71
2023/07/08 09:51:37;;;;;;;9.02;1.73;;;24.30;92.10;;;;;;4177341;28;20021;-63
2023/07/08 09:53:39;;;;;;;1.55;0.98;;;24.30;92.40;;;;;;4176457;28;20103;-66
2023/07/08 09:55:40;;;;;;;2.72;1.05;;;24.40;92.50;;;;;;4178971;28;20033;-70
2023/07/08 09:57:44;;;;;;;4.45;1.17;;;24.30;92.20;;;;;;4179534;28;20500;-61
2023/07/08 09:59:52;;;;;;;3.28;1.17;;;24.40;92.60;;;;;;4179115;28;20098;-61
2023/07/08 10:01:53;;;;;;;3.80;1.30;;;24.30;92.00;;;;;;4179293;28;20033;-66
2023/07/08 10:03:59;;;;;;;2.35;1.23;;;24.50;92.10;;;;;;4179339;28;20025;-62
2023/07/08 10:06:06;;;;;;;6.53;1.95;;;24.80;91.70;;;;;;4179309;28;20114;-61
2023/07/08 10:08:18;;;;;;;7.20;1.60;;;24.70;91.50;;;;;;4178737;28;20090;-71
2023/07/08 10:10:26;;;;;;;3.20;1.40;;;24.70;91.70;;;;;;4160081;28;20037;-61
2023/07/08 10:12:29;;;;;;;23.25;3.35;;;24.50;91.70;;;;;;4176204;28;20469;-62
2023/07/08 10:14:47;;;;;;;9.13;2.38;;;24.40;92.00;;;;;;4179722;28;20358;-63
2023/07/08 10:16:48;;;;;;;27.00;4.85;;;24.20;92.00;;;;;;4179025;28;20024;-61
2023/07/08 10:18:50;;;;;;;18.50;3.05;;;24.20;92.70;;;;;;4161009;28;20033;-63
2023/07/08 10:21:19;;;;;;;4.28;1.95;;;24.30;92.80;;;;;;4179119;28;20059;-62
2023/07/08 10:23:20;;;;;;;2.53;1.40;;;24.20;92.80;;;;;;4179509;28;20075;-62
2023/07/08 10:25:42;;;;;;;17.98;3.15;;;24.10;92.90;;;;;;4177223;28;20449;-69
2023/07/08 10:27:46;;;;;;;2.60;1.15;;;24.00;92.90;;;;;;4179170;28;20017;-62
2023/07/08 10:30:05;;;;;;;5.25;2.10;;;24.00;93.20;;;;;;4178484;28;20437;-61
2023/07/08 10:32:37;;;;;;;6.60;1.13;;;23.90;92.90;;;;;;4178486;28;20071;-66
2023/07/08 10:35:04;;;;;;;1.58;1.17;;;23.90;93.00;;;;;;4179099;28;20122;-61
2023/07/08 10:37:16;;;;;;;42.30;6.70;;;23.90;93.40;;;;;;4170804;28;20067;-63
2023/07/08 10:39:20;;;;;;;18.55;4.72;;;23.80;93.70;;;;;;4178658;28;20071;-64
2023/07/08 10:41:39;;;;;;;2.38;1.23;;;23.90;93.90;;;;;;4177948;28;20029;-67